sensor_id;sensor_type;location;lat;lon;timestamp;P1;durP1;ratioP1;P2;durP2;ratioP2
18425;SDS011;9340;48.756;9.226;2023-06-04T00:00:33;8.93;;;8.10;;
18425;SDS011;9340;48.756;9.226;2023-06-04T00:02:59;10.17;;;8.87;;
18425;SDS011;9340;48.756;9.226;2023-06-04T00:05:26;8.90;;;8.10;;
18425;SDS011;9340;48.756;9.226;2023-06-04T00:07:52;10.20;;;8.63;;
18425;SDS011;9340;48.756;9.226;2023-06-04T00:10:19;9.77;;;8.70;;
18425;SDS011;9340;48.756;9.226;2023-06-04T00:12:47;8.67;;;7.87;;
18425;SDS011;9340;48.756;9.226;2023-06-04T00:15:14;8.63;;;7.93;;
18425;SDS011;9340;48.756;9.226;2023-06-04T00:17:41;8.73;;;7.90;;
18425;SDS011;9340;48.756;9.226;2023-06-04T00:20:08;9.73;;;8.60;;
18425;SDS011;9340;48.756;9.226;2023-06-04T00:22:36;8.70;;;7.90;;
18425;SDS011;9340;48.756;9.226;2023-06-04T00:25:06;7.90;;;7.17;;
18425;SDS011;9340;48.756;9.226;2023-06-04T00:27:33;8.67;;;7.77;;
18425;SDS011;9340;48.756;9.226;2023-06-04T00:30:01;8.87;;;8.07;;
18425;SDS011;9340;48.756;9.226;2023-06-04T00:32:28;8.40;;;7.70;;
18425;SDS011;9340;48.756;9.226;2023-06-04T00:34:55;8.83;;;8.00;;
18425;SDS011;9340;48.756;9.226;2023-06-04T00:37:23;8.43;;;7.63;;
18425;SDS011;9340;48.756;9.226;2023-06-04T00:39:50;8.83;;;7.93;;
18425;SDS011;9340;48.756;9.226;2023-06-04T00:42:16;9.20;;;8.23;;
18425;SDS011;9340;48.756;9.226;2023-06-04T00:44:43;9.40;;;7.23;;
18425;SDS011;9340;48.756;9.226;2023-06-04T00:47:11;8.60;;;7.80;;
18425;SDS011;9340;48.756;9.226;2023-06-04T00:49:39;7.93;;;7.23;;
18425;SDS011;9340;48.756;9.226;2023-06-04T00:52:06;8.70;;;7.80;;
18425;SDS011;9340;48.756;9.226;2023-06-04T00:54:34;8.23;;;7.43;;
18425;SDS011;9340;48.756;9.226;2023-06-04T00:57:02;8.63;;;7.70;;
18425;SDS011;9340;48.756;9.226;2023-06-04T00:59:29;7.27;;;6.57;;
18425;SDS011;9340;48.756;9.226;2023-06-04T01:01:58;7.73;;;7.03;;
18425;SDS011;9340;48.756;9.226;2023-06-04T01:04:32;7.93;;;7.13;;
18425;SDS011;9340;48.756;9.226;2023-06-04T01:07:03;8.03;;;7.07;;
18425;SDS011;9340;48.756;9.226;2023-06-04T01:09:33;8.30;;;7.43;;
18425;SDS011;9340;48.756;9.226;2023-06-04T01:12:03;8.13;;;7.33;;
18425;SDS011;9340;48.756;9.226;2023-06-04T01:14:30;9.03;;;7.53;;
18425;SDS011;9340;48.756;9.226;2023-06-04T01:16:59;8.87;;;7.43;;
18425;SDS011;9340;48.756;9.226;2023-06-04T01:19:41;7.70;;;7.00;;
18425;SDS011;9340;48.756;9.226;2023-06-04T01:22:38;7.70;;;7.10;;
18425;SDS011;9340;48.756;9.226;2023-06-04T01:25:10;8.20;;;6.80;;
18425;SDS011;9340;48.756;9.226;2023-06-04T01:27:44;8.60;;;7.67;;
18425;SDS011;9340;48.756;9.226;2023-06-04T01:30:13;8.67;;;6.30;;
18425;SDS011;9340;48.756;9.226;2023-06-04T01:32:41;7.70;;;7.03;;
18425;SDS011;9340;48.756;9.226;2023-06-04T01:35:09;7.20;;;6.60;;
18425;SDS011;9340;48.756;9.226;2023-06-04T01:37:37;7.23;;;6.60;;
18425;SDS011;9340;48.756;9.226;2023-06-04T01:40:04;8.00;;;7.20;;
18425;SDS011;9340;48.756;9.226;2023-06-04T01:42:33;8.93;;;6.83;;
18425;SDS011;9340;48.756;9.226;2023-06-04T01:45:00;7.67;;;6.93;;
18425;SDS011;9340;48.756;9.226;2023-06-04T01:47:26;6.77;;;6.03;;
18425;SDS011;9340;48.756;9.226;2023-06-04T01:49:53;7.10;;;6.37;;
18425;SDS011;9340;48.756;9.226;2023-06-04T01:52:21;6.60;;;6.00;;
18425;SDS011;9340;48.756;9.226;2023-06-04T01:54:48;7.00;;;6.30;;
18425;SDS011;9340;48.756;9.226;2023-06-04T01:57:17;7.53;;;6.77;;
18425;SDS011;9340;48.756;9.226;2023-06-04T01:59:44;8.03;;;6.80;;
18425;SDS011;9340;48.756;9.226;2023-06-04T02:02:11;7.07;;;6.03;;
18425;SDS011;9340;48.756;9.226;2023-06-04T02:04:38;6.60;;;6.00;;
18425;SDS011;9340;48.756;9.226;2023-06-04T02:07:06;6.73;;;5.90;;
18425;SDS011;9340;48.756;9.226;2023-06-04T02:09:34;6.33;;;5.63;;
18425;SDS011;9340;48.756;9.226;2023-06-04T02:12:01;6.60;;;5.80;;
18425;SDS011;9340;48.756;9.226;2023-06-04T02:14:28;7.37;;;6.00;;
18425;SDS011;9340;48.756;9.226;2023-06-04T02:16:55;6.67;;;5.73;;
18425;SDS011;9340;48.756;9.226;2023-06-04T02:19:23;6.63;;;6.03;;
18425;SDS011;9340;48.756;9.226;2023-06-04T02:21:50;6.57;;;5.80;;
18425;SDS011;9340;48.756;9.226;2023-06-04T02:24:17;6.70;;;6.10;;
18425;SDS011;9340;48.756;9.226;2023-06-04T02:26:45;7.10;;;5.80;;
18425;SDS011;9340;48.756;9.226;2023-06-04T02:29:12;7.63;;;5.60;;
18425;SDS011;9340;48.756;9.226;2023-06-04T02:31:38;11.70;;;5.70;;
18425;SDS011;9340;48.756;9.226;2023-06-04T02:34:05;5.93;;;5.33;;
18425;SDS011;9340;48.756;9.226;2023-06-04T02:36:32;6.30;;;5.70;;
18425;SDS011;9340;48.756;9.226;2023-06-04T02:38:58;6.73;;;5.40;;
18425;SDS011;9340;48.756;9.226;2023-06-04T02:41:26;5.47;;;4.97;;
18425;SDS011;9340;48.756;9.226;2023-06-04T02:43:54;6.00;;;5.50;;
18425;SDS011;9340;48.756;9.226;2023-06-04T02:46:20;5.83;;;5.33;;
18425;SDS011;9340;48.756;9.226;2023-06-04T02:48:47;5.77;;;5.30;;
18425;SDS011;9340;48.756;9.226;2023-06-04T02:51:14;6.07;;;5.47;;
18425;SDS011;9340;48.756;9.226;2023-06-04T02:53:40;7.30;;;5.27;;
18425;SDS011;9340;48.756;9.226;2023-06-04T02:56:07;5.47;;;4.90;;
18425;SDS011;9340;48.756;9.226;2023-06-04T02:58:33;6.47;;;4.70;;
18425;SDS011;9340;48.756;9.226;2023-06-04T03:01:06;5.43;;;4.93;;
18425;SDS011;9340;48.756;9.226;2023-06-04T03:03:32;7.00;;;4.83;;
18425;SDS011;9340;48.756;9.226;2023-06-04T03:05:59;5.23;;;4.73;;
18425;SDS011;9340;48.756;9.226;2023-06-04T03:08:27;5.00;;;4.47;;
18425;SDS011;9340;48.756;9.226;2023-06-04T03:10:54;5.40;;;4.90;;
18425;SDS011;9340;48.756;9.226;2023-06-04T03:13:20;5.53;;;5.07;;
18425;SDS011;9340;48.756;9.226;2023-06-04T03:15:47;5.10;;;4.70;;
18425;SDS011;9340;48.756;9.226;2023-06-04T03:18:15;5.13;;;4.63;;
18425;SDS011;9340;48.756;9.226;2023-06-04T03:20:42;5.20;;;4.80;;
18425;SDS011;9340;48.756;9.226;2023-06-04T03:23:08;5.70;;;5.07;;
18425;SDS011;9340;48.756;9.226;2023-06-04T03:25:35;5.70;;;5.10;;
18425;SDS011;9340;48.756;9.226;2023-06-04T03:28:02;5.03;;;4.47;;
18425;SDS011;9340;48.756;9.226;2023-06-04T03:30:28;5.43;;;5.00;;
18425;SDS011;9340;48.756;9.226;2023-06-04T03:32:55;7.23;;;5.03;;
18425;SDS011;9340;48.756;9.226;2023-06-04T03:35:23;5.70;;;5.20;;
18425;SDS011;9340;48.756;9.226;2023-06-04T03:37:49;5.50;;;5.00;;
18425;SDS011;9340;48.756;9.226;2023-06-04T03:40:16;6.83;;;5.37;;
18425;SDS011;9340;48.756;9.226;2023-06-04T03:42:43;6.53;;;5.13;;
18425;SDS011;9340;48.756;9.226;2023-06-04T03:45:09;5.03;;;4.50;;
18425;SDS011;9340;48.756;9.226;2023-06-04T03:47:37;5.20;;;4.70;;
18425;SDS011;9340;48.756;9.226;2023-06-04T03:50:05;5.87;;;5.33;;
18425;SDS011;9340;48.756;9.226;2023-06-04T03:52:33;5.30;;;4.80;;
18425;SDS011;9340;48.756;9.226;2023-06-04T03:55:00;5.37;;;4.87;;
18425;SDS011;9340;48.756;9.226;2023-06-04T03:57:28;5.83;;;5.27;;
18425;SDS011;9340;48.756;9.226;2023-06-04T03:59:55;7.13;;;4.90;;
18425;SDS011;9340;48.756;9.226;2023-06-04T04:02:22;5.43;;;4.87;;
18425;SDS011;9340;48.756;9.226;2023-06-04T04:04:49;5.77;;;5.27;;
18425;SDS011;9340;48.756;9.226;2023-06-04T04:07:19;7.10;;;4.90;;
18425;SDS011;9340;48.756;9.226;2023-06-04T04:09:47;7.63;;;4.90;;
18425;SDS011;9340;48.756;9.226;2023-06-04T04:12:14;5.77;;;5.27;;
18425;SDS011;9340;48.756;9.226;2023-06-04T04:14:41;5.33;;;4.83;;
18425;SDS011;9340;48.756;9.226;2023-06-04T04:17:07;5.07;;;4.60;;
18425;SDS011;9340;48.756;9.226;2023-06-04T04:19:34;5.37;;;4.87;;
18425;SDS011;9340;48.756;9.226;2023-06-04T04:22:01;5.27;;;4.87;;
18425;SDS011;9340;48.756;9.226;2023-06-04T04:24:28;4.70;;;4.30;;
18425;SDS011;9340;48.756;9.226;2023-06-04T04:26:56;5.23;;;4.83;;
18425;SDS011;9340;48.756;9.226;2023-06-04T04:29:23;4.43;;;4.13;;
18425;SDS011;9340;48.756;9.226;2023-06-04T04:31:50;5.43;;;5.00;;
18425;SDS011;9340;48.756;9.226;2023-06-04T04:34:18;5.07;;;4.50;;
18425;SDS011;9340;48.756;9.226;2023-06-04T04:36:46;5.47;;;4.43;;
18425;SDS011;9340;48.756;9.226;2023-06-04T04:39:17;4.37;;;4.07;;
18425;SDS011;9340;48.756;9.226;2023-06-04T04:41:44;5.73;;;4.30;;
18425;SDS011;9340;48.756;9.226;2023-06-04T04:44:12;5.47;;;4.77;;
18425;SDS011;9340;48.756;9.226;2023-06-04T04:46:38;5.17;;;4.77;;
18425;SDS011;9340;48.756;9.226;2023-06-04T04:49:05;5.00;;;4.50;;
18425;SDS011;9340;48.756;9.226;2023-06-04T04:51:32;4.93;;;4.20;;
18425;SDS011;9340;48.756;9.226;2023-06-04T04:53:58;5.03;;;4.60;;
18425;SDS011;9340;48.756;9.226;2023-06-04T04:56:26;5.57;;;4.63;;
18425;SDS011;9340;48.756;9.226;2023-06-04T04:58:53;4.50;;;4.10;;
18425;SDS011;9340;48.756;9.226;2023-06-04T05:01:21;4.53;;;4.10;;
18425;SDS011;9340;48.756;9.226;2023-06-04T05:03:49;4.87;;;4.37;;
18425;SDS011;9340;48.756;9.226;2023-06-04T05:06:15;4.50;;;4.10;;
18425;SDS011;9340;48.756;9.226;2023-06-04T05:08:42;4.40;;;4.00;;
18425;SDS011;9340;48.756;9.226;2023-06-04T05:11:09;4.40;;;4.00;;
18425;SDS011;9340;48.756;9.226;2023-06-04T05:13:35;4.77;;;4.37;;
18425;SDS011;9340;48.756;9.226;2023-06-04T05:16:02;4.67;;;4.27;;
18425;SDS011;9340;48.756;9.226;2023-06-04T05:18:33;5.80;;;4.27;;
18425;SDS011;9340;48.756;9.226;2023-06-04T05:21:00;4.20;;;3.80;;
18425;SDS011;9340;48.756;9.226;2023-06-04T05:23:27;4.17;;;3.77;;
18425;SDS011;9340;48.756;9.226;2023-06-04T05:25:54;3.75;;;3.45;;
18425;SDS011;9340;48.756;9.226;2023-06-04T05:28:21;5.35;;;4.22;;
18425;SDS011;9340;48.756;9.226;2023-06-04T05:30:50;5.35;;;3.72;;
18425;SDS011;9340;48.756;9.226;2023-06-04T05:33:23;3.53;;;3.22;;
18425;SDS011;9340;48.756;9.226;2023-06-04T05:35:51;4.20;;;3.90;;
18425;SDS011;9340;48.756;9.226;2023-06-04T05:38:19;3.60;;;3.28;;
18425;SDS011;9340;48.756;9.226;2023-06-04T05:40:45;5.35;;;3.40;;
18425;SDS011;9340;48.756;9.226;2023-06-04T05:43:12;4.85;;;3.63;;
18425;SDS011;9340;48.756;9.226;2023-06-04T05:45:39;3.53;;;3.10;;
18425;SDS011;9340;48.756;9.226;2023-06-04T05:48:06;3.53;;;3.22;;
18425;SDS011;9340;48.756;9.226;2023-06-04T05:50:33;3.55;;;2.97;;
18425;SDS011;9340;48.756;9.226;2023-06-04T05:53:01;4.50;;;3.33;;
18425;SDS011;9340;48.756;9.226;2023-06-04T05:55:27;4.63;;;2.97;;
18425;SDS011;9340;48.756;9.226;2023-06-04T05:57:54;5.75;;;3.08;;
18425;SDS011;9340;48.756;9.226;2023-06-04T06:00:22;3.30;;;3.00;;
18425;SDS011;9340;48.756;9.226;2023-06-04T06:02:49;3.53;;;3.15;;
18425;SDS011;9340;48.756;9.226;2023-06-04T06:05:17;3.05;;;2.80;;
18425;SDS011;9340;48.756;9.226;2023-06-04T06:07:44;3.05;;;2.80;;
18425;SDS011;9340;48.756;9.226;2023-06-04T06:10:12;3.08;;;2.80;;
18425;SDS011;9340;48.756;9.226;2023-06-04T06:12:40;3.10;;;2.80;;
18425;SDS011;9340;48.756;9.226;2023-06-04T06:15:07;3.28;;;2.97;;
18425;SDS011;9340;48.756;9.226;2023-06-04T06:17:35;4.28;;;2.90;;
18425;SDS011;9340;48.756;9.226;2023-06-04T06:20:01;3.60;;;3.30;;
18425;SDS011;9340;48.756;9.226;2023-06-04T06:22:31;4.65;;;2.90;;
18425;SDS011;9340;48.756;9.226;2023-06-04T06:24:57;3.03;;;2.72;;
18425;SDS011;9340;48.756;9.226;2023-06-04T06:27:26;3.55;;;2.88;;
18425;SDS011;9340;48.756;9.226;2023-06-04T06:29:52;3.30;;;3.00;;
18425;SDS011;9340;48.756;9.226;2023-06-04T06:32:19;4.22;;;3.15;;
18425;SDS011;9340;48.756;9.226;2023-06-04T06:34:45;4.53;;;3.05;;
18425;SDS011;9340;48.756;9.226;2023-06-04T06:37:12;3.70;;;3.10;;
18425;SDS011;9340;48.756;9.226;2023-06-04T06:39:39;3.22;;;2.97;;
18425;SDS011;9340;48.756;9.226;2023-06-04T06:42:05;3.67;;;3.15;;
18425;SDS011;9340;48.756;9.226;2023-06-04T06:44:33;5.28;;;3.15;;
18425;SDS011;9340;48.756;9.226;2023-06-04T06:47:00;4.80;;;4.18;;
18425;SDS011;9340;48.756;9.226;2023-06-04T06:49:27;18.20;;;16.40;;
18425;SDS011;9340;48.756;9.226;2023-06-04T06:51:53;21.23;;;19.17;;
18425;SDS011;9340;48.756;9.226;2023-06-04T06:54:20;19.83;;;17.92;;
18425;SDS011;9340;48.756;9.226;2023-06-04T06:56:47;9.43;;;8.63;;
18425;SDS011;9340;48.756;9.226;2023-06-04T06:59:15;5.68;;;4.63;;
18425;SDS011;9340;48.756;9.226;2023-06-04T07:01:44;3.83;;;3.40;;
18425;SDS011;9340;48.756;9.226;2023-06-04T07:04:12;4.72;;;3.50;;
18425;SDS011;9340;48.756;9.226;2023-06-04T07:06:38;4.18;;;3.20;;
18425;SDS011;9340;48.756;9.226;2023-06-04T07:09:05;3.25;;;2.95;;
18425;SDS011;9340;48.756;9.226;2023-06-04T07:11:32;3.55;;;3.25;;
18425;SDS011;9340;48.756;9.226;2023-06-04T07:13:59;3.58;;;3.28;;
18425;SDS011;9340;48.756;9.226;2023-06-04T07:16:27;3.03;;;2.70;;
18425;SDS011;9340;48.756;9.226;2023-06-04T07:18:55;3.88;;;3.15;;
18425;SDS011;9340;48.756;9.226;2023-06-04T07:21:22;3.88;;;3.28;;
18425;SDS011;9340;48.756;9.226;2023-06-04T07:23:49;4.80;;;3.15;;
18425;SDS011;9340;48.756;9.226;2023-06-04T07:26:16;4.03;;;3.15;;
18425;SDS011;9340;48.756;9.226;2023-06-04T07:28:42;3.38;;;3.05;;
18425;SDS011;9340;48.756;9.226;2023-06-04T07:31:09;4.85;;;3.22;;
18425;SDS011;9340;48.756;9.226;2023-06-04T07:33:37;4.60;;;3.80;;
18425;SDS011;9340;48.756;9.226;2023-06-04T07:36:09;3.20;;;2.90;;
18425;SDS011;9340;48.756;9.226;2023-06-04T07:38:36;3.72;;;3.33;;
18425;SDS011;9340;48.756;9.226;2023-06-04T07:41:03;4.35;;;3.30;;
18425;SDS011;9340;48.756;9.226;2023-06-04T07:43:29;2.90;;;2.60;;
18425;SDS011;9340;48.756;9.226;2023-06-04T07:45:56;3.25;;;3.03;;
18425;SDS011;9340;48.756;9.226;2023-06-04T07:48:23;4.00;;;3.42;;
18425;SDS011;9340;48.756;9.226;2023-06-04T07:50:55;3.65;;;3.22;;
18425;SDS011;9340;48.756;9.226;2023-06-04T07:53:23;4.03;;;3.15;;
18425;SDS011;9340;48.756;9.226;2023-06-04T07:55:50;3.33;;;2.90;;
18425;SDS011;9340;48.756;9.226;2023-06-04T07:58:17;3.47;;;3.17;;
18425;SDS011;9340;48.756;9.226;2023-06-04T08:00:44;5.05;;;3.30;;
18425;SDS011;9340;48.756;9.226;2023-06-04T08:03:11;3.78;;;3.22;;
18425;SDS011;9340;48.756;9.226;2023-06-04T08:05:38;4.13;;;2.97;;
18425;SDS011;9340;48.756;9.226;2023-06-04T08:08:04;3.72;;;3.42;;
18425;SDS011;9340;48.756;9.226;2023-06-04T08:10:33;3.03;;;2.83;;
18425;SDS011;9340;48.756;9.226;2023-06-04T08:13:00;3.53;;;3.10;;
18425;SDS011;9340;48.756;9.226;2023-06-04T08:15:26;4.03;;;3.15;;
18425;SDS011;9340;48.756;9.226;2023-06-04T08:17:53;4.47;;;2.67;;
18425;SDS011;9340;48.756;9.226;2023-06-04T08:20:20;3.50;;;3.20;;
18425;SDS011;9340;48.756;9.226;2023-06-04T08:22:47;4.10;;;3.30;;
18425;SDS011;9340;48.756;9.226;2023-06-04T08:25:13;4.35;;;3.30;;
18425;SDS011;9340;48.756;9.226;2023-06-04T08:27:42;3.67;;;3.38;;
18425;SDS011;9340;48.756;9.226;2023-06-04T08:30:09;3.58;;;3.28;;
18425;SDS011;9340;48.756;9.226;2023-06-04T08:32:36;4.20;;;3.67;;
18425;SDS011;9340;48.756;9.226;2023-06-04T08:35:02;3.35;;;3.10;;
18425;SDS011;9340;48.756;9.226;2023-06-04T08:37:30;5.85;;;3.60;;
18425;SDS011;9340;48.756;9.226;2023-06-04T08:39:56;5.10;;;3.05;;
18425;SDS011;9340;48.756;9.226;2023-06-04T08:42:26;3.92;;;3.63;;
18425;SDS011;9340;48.756;9.226;2023-06-04T08:44:57;4.60;;;3.60;;
18425;SDS011;9340;48.756;9.226;2023-06-04T08:47:24;4.05;;;3.20;;
18425;SDS011;9340;48.756;9.226;2023-06-04T08:49:52;4.88;;;3.42;;
18425;SDS011;9340;48.756;9.226;2023-06-04T08:52:21;5.30;;;3.40;;
18425;SDS011;9340;48.756;9.226;2023-06-04T08:54:48;3.70;;;3.40;;
18425;SDS011;9340;48.756;9.226;2023-06-04T08:57:16;3.95;;;3.50;;
18425;SDS011;9340;48.756;9.226;2023-06-04T08:59:44;4.35;;;3.83;;
18425;SDS011;9340;48.756;9.226;2023-06-04T09:02:13;4.68;;;3.20;;
18425;SDS011;9340;48.756;9.226;2023-06-04T09:04:40;3.58;;;3.28;;
18425;SDS011;9340;48.756;9.226;2023-06-04T09:07:08;3.50;;;3.20;;
18425;SDS011;9340;48.756;9.226;2023-06-04T09:09:38;4.82;;;3.70;;
18425;SDS011;9340;48.756;9.226;2023-06-04T09:12:08;4.15;;;3.30;;
18425;SDS011;9340;48.756;9.226;2023-06-04T09:14:37;3.75;;;3.35;;
18425;SDS011;9340;48.756;9.226;2023-06-04T09:17:04;3.70;;;3.35;;
18425;SDS011;9340;48.756;9.226;2023-06-04T09:19:32;7.15;;;3.78;;
18425;SDS011;9340;48.756;9.226;2023-06-04T09:21:59;7.75;;;6.93;;
18425;SDS011;9340;48.756;9.226;2023-06-04T09:24:38;6.05;;;4.03;;
18425;SDS011;9340;48.756;9.226;2023-06-04T09:27:09;5.35;;;4.53;;
18425;SDS011;9340;48.756;9.226;2023-06-04T09:29:36;5.30;;;4.90;;
18425;SDS011;9340;48.756;9.226;2023-06-04T09:32:04;4.63;;;4.22;;
18425;SDS011;9340;48.756;9.226;2023-06-04T09:34:31;4.28;;;3.88;;
18425;SDS011;9340;48.756;9.226;2023-06-04T09:36:59;4.15;;;3.25;;
18425;SDS011;9340;48.756;9.226;2023-06-04T09:39:25;3.60;;;3.30;;
18425;SDS011;9340;48.756;9.226;2023-06-04T09:41:59;6.82;;;3.88;;
18425;SDS011;9340;48.756;9.226;2023-06-04T09:44:26;4.90;;;4.25;;
18425;SDS011;9340;48.756;9.226;2023-06-04T09:46:54;7.35;;;4.28;;
18425;SDS011;9340;48.756;9.226;2023-06-04T09:49:21;3.80;;;3.50;;
18425;SDS011;9340;48.756;9.226;2023-06-04T09:51:49;5.03;;;4.03;;
18425;SDS011;9340;48.756;9.226;2023-06-04T09:54:16;4.43;;;3.88;;
18425;SDS011;9340;48.756;9.226;2023-06-04T09:56:43;4.90;;;3.95;;
18425;SDS011;9340;48.756;9.226;2023-06-04T09:59:09;6.68;;;4.57;;
18425;SDS011;9340;48.756;9.226;2023-06-04T10:01:38;4.95;;;4.40;;
18425;SDS011;9340;48.756;9.226;2023-06-04T10:04:06;5.20;;;4.30;;
18425;SDS011;9340;48.756;9.226;2023-06-04T10:06:37;5.45;;;4.53;;
18425;SDS011;9340;48.756;9.226;2023-06-04T10:09:07;6.53;;;3.72;;
18425;SDS011;9340;48.756;9.226;2023-06-04T10:11:35;5.70;;;4.35;;
18425;SDS011;9340;48.756;9.226;2023-06-04T10:14:07;3.95;;;3.60;;
18425;SDS011;9340;48.756;9.226;2023-06-04T10:16:41;5.97;;;4.45;;
18425;SDS011;9340;48.756;9.226;2023-06-04T10:19:09;3.90;;;3.60;;
18425;SDS011;9340;48.756;9.226;2023-06-04T10:21:36;4.30;;;3.90;;
18425;SDS011;9340;48.756;9.226;2023-06-04T10:24:03;4.55;;;3.72;;
18425;SDS011;9340;48.756;9.226;2023-06-04T10:26:33;6.00;;;4.40;;
18425;SDS011;9340;48.756;9.226;2023-06-04T10:29:01;5.40;;;4.43;;
18425;SDS011;9340;48.756;9.226;2023-06-04T10:31:28;5.43;;;4.57;;
18425;SDS011;9340;48.756;9.226;2023-06-04T10:33:55;5.53;;;3.92;;
18425;SDS011;9340;48.756;9.226;2023-06-04T10:36:23;5.70;;;5.10;;
18425;SDS011;9340;48.756;9.226;2023-06-04T10:38:50;5.90;;;4.90;;
18425;SDS011;9340;48.756;9.226;2023-06-04T10:41:19;5.30;;;4.53;;
18425;SDS011;9340;48.756;9.226;2023-06-04T10:43:49;5.15;;;4.65;;
18425;SDS011;9340;48.756;9.226;2023-06-04T10:46:17;7.20;;;4.57;;
18425;SDS011;9340;48.756;9.226;2023-06-04T10:48:45;5.28;;;4.10;;
18425;SDS011;9340;48.756;9.226;2023-06-04T10:51:13;4.68;;;4.28;;
18425;SDS011;9340;48.756;9.226;2023-06-04T10:53:41;6.00;;;4.47;;
18425;SDS011;9340;48.756;9.226;2023-06-04T10:56:08;7.28;;;4.70;;
18425;SDS011;9340;48.756;9.226;2023-06-04T10:58:35;5.13;;;4.50;;
18425;SDS011;9340;48.756;9.226;2023-06-04T11:01:03;4.88;;;4.47;;
18425;SDS011;9340;48.756;9.226;2023-06-04T11:03:36;4.93;;;4.00;;
18425;SDS011;9340;48.756;9.226;2023-06-04T11:06:13;5.18;;;4.38;;
18425;SDS011;9340;48.756;9.226;2023-06-04T11:08:41;4.30;;;3.80;;
18425;SDS011;9340;48.756;9.226;2023-06-04T11:11:10;6.25;;;4.38;;
18425;SDS011;9340;48.756;9.226;2023-06-04T11:13:37;4.82;;;4.43;;
18425;SDS011;9340;48.756;9.226;2023-06-04T11:16:13;6.68;;;4.75;;
18425;SDS011;9340;48.756;9.226;2023-06-04T11:18:41;5.60;;;5.10;;
18425;SDS011;9340;48.756;9.226;2023-06-04T11:21:08;4.60;;;4.20;;
18425;SDS011;9340;48.756;9.226;2023-06-04T11:23:36;5.03;;;4.25;;
18425;SDS011;9340;48.756;9.226;2023-06-04T11:26:04;5.72;;;4.35;;
18425;SDS011;9340;48.756;9.226;2023-06-04T11:28:30;4.10;;;3.80;;
18425;SDS011;9340;48.756;9.226;2023-06-04T11:30:58;4.60;;;4.10;;
18425;SDS011;9340;48.756;9.226;2023-06-04T11:33:28;7.50;;;4.47;;
18425;SDS011;9340;48.756;9.226;2023-06-04T11:35:55;4.78;;;4.18;;
18425;SDS011;9340;48.756;9.226;2023-06-04T11:38:22;4.45;;;4.05;;
18425;SDS011;9340;48.756;9.226;2023-06-04T11:40:56;5.25;;;4.72;;
18425;SDS011;9340;48.756;9.226;2023-06-04T11:43:28;5.80;;;4.28;;
18425;SDS011;9340;48.756;9.226;2023-06-04T11:45:55;4.70;;;4.13;;
18425;SDS011;9340;48.756;9.226;2023-06-04T11:48:22;6.82;;;4.40;;
18425;SDS011;9340;48.756;9.226;2023-06-04T11:50:50;4.45;;;4.05;;
18425;SDS011;9340;48.756;9.226;2023-06-04T11:53:17;5.82;;;4.85;;
18425;SDS011;9340;48.756;9.226;2023-06-04T11:55:43;4.93;;;4.47;;
18425;SDS011;9340;48.756;9.226;2023-06-04T11:58:10;4.53;;;4.10;;
18425;SDS011;9340;48.756;9.226;2023-06-04T12:00:37;4.82;;;4.10;;
18425;SDS011;9340;48.756;9.226;2023-06-04T12:03:04;4.85;;;4.45;;
18425;SDS011;9340;48.756;9.226;2023-06-04T12:05:31;4.47;;;4.10;;
18425;SDS011;9340;48.756;9.226;2023-06-04T12:08:09;5.22;;;4.60;;
18425;SDS011;9340;48.756;9.226;2023-06-04T12:10:37;5.60;;;4.35;;
18425;SDS011;9340;48.756;9.226;2023-06-04T12:13:04;5.70;;;4.80;;
18425;SDS011;9340;48.756;9.226;2023-06-04T12:15:31;4.00;;;3.70;;
18425;SDS011;9340;48.756;9.226;2023-06-04T12:17:58;4.53;;;4.13;;
18425;SDS011;9340;48.756;9.226;2023-06-04T12:20:34;6.50;;;4.28;;
18425;SDS011;9340;48.756;9.226;2023-06-04T12:23:01;6.32;;;4.20;;
18425;SDS011;9340;48.756;9.226;2023-06-04T12:25:30;4.32;;;3.95;;
18425;SDS011;9340;48.756;9.226;2023-06-04T12:27:56;4.70;;;4.40;;
18425;SDS011;9340;48.756;9.226;2023-06-04T12:30:23;5.15;;;4.65;;
18425;SDS011;9340;48.756;9.226;2023-06-04T12:33:01;4.80;;;4.03;;
18425;SDS011;9340;48.756;9.226;2023-06-04T12:35:28;4.95;;;4.43;;
18425;SDS011;9340;48.756;9.226;2023-06-04T12:37:54;5.00;;;4.60;;
18425;SDS011;9340;48.756;9.226;2023-06-04T12:40:21;4.78;;;4.38;;
18425;SDS011;9340;48.756;9.226;2023-06-04T12:42:50;5.15;;;4.72;;
18425;SDS011;9340;48.756;9.226;2023-06-04T12:45:17;5.40;;;4.90;;
18425;SDS011;9340;48.756;9.226;2023-06-04T12:47:44;4.78;;;4.38;;
18425;SDS011;9340;48.756;9.226;2023-06-04T12:50:11;5.70;;;5.15;;
18425;SDS011;9340;48.756;9.226;2023-06-04T12:52:38;5.57;;;5.05;;
18425;SDS011;9340;48.756;9.226;2023-06-04T12:55:06;5.38;;;4.97;;
18425;SDS011;9340;48.756;9.226;2023-06-04T12:57:33;4.78;;;4.38;;
18425;SDS011;9340;48.756;9.226;2023-06-04T13:00:01;5.30;;;4.80;;
18425;SDS011;9340;48.756;9.226;2023-06-04T13:02:29;5.43;;;4.93;;
18425;SDS011;9340;48.756;9.226;2023-06-04T13:04:56;5.28;;;4.78;;
18425;SDS011;9340;48.756;9.226;2023-06-04T13:07:23;5.05;;;4.63;;
18425;SDS011;9340;48.756;9.226;2023-06-04T13:09:49;5.25;;;4.78;;
18425;SDS011;9340;48.756;9.226;2023-06-04T13:12:16;5.70;;;5.20;;
18425;SDS011;9340;48.756;9.226;2023-06-04T13:14:43;5.05;;;4.55;;
18425;SDS011;9340;48.756;9.226;2023-06-04T13:17:11;5.00;;;4.57;;
18425;SDS011;9340;48.756;9.226;2023-06-04T13:19:38;4.90;;;4.50;;
18425;SDS011;9340;48.756;9.226;2023-06-04T13:22:05;4.60;;;4.20;;
18425;SDS011;9340;48.756;9.226;2023-06-04T13:24:31;4.65;;;4.25;;
18425;SDS011;9340;48.756;9.226;2023-06-04T13:26:58;4.88;;;4.50;;
18425;SDS011;9340;48.756;9.226;2023-06-04T13:29:25;5.30;;;4.80;;
18425;SDS011;9340;48.756;9.226;2023-06-04T13:31:51;6.18;;;5.05;;
18425;SDS011;9340;48.756;9.226;2023-06-04T13:34:20;5.63;;;4.50;;
18425;SDS011;9340;48.756;9.226;2023-06-04T13:36:47;5.47;;;4.20;;
18425;SDS011;9340;48.756;9.226;2023-06-04T13:39:14;5.00;;;4.57;;
18425;SDS011;9340;48.756;9.226;2023-06-04T13:41:40;4.70;;;4.30;;
18425;SDS011;9340;48.756;9.226;2023-06-04T13:44:07;5.32;;;4.80;;
18425;SDS011;9340;48.756;9.226;2023-06-04T13:46:34;4.78;;;4.38;;
18425;SDS011;9340;48.756;9.226;2023-06-04T13:49:01;6.78;;;4.55;;
18425;SDS011;9340;48.756;9.226;2023-06-04T13:51:29;4.78;;;4.15;;
18425;SDS011;9340;48.756;9.226;2023-06-04T13:53:56;5.03;;;4.57;;
18425;SDS011;9340;48.756;9.226;2023-06-04T13:56:23;5.07;;;4.43;;
18425;SDS011;9340;48.756;9.226;2023-06-04T13:58:50;4.28;;;3.88;;
18425;SDS011;9340;48.756;9.226;2023-06-04T14:01:17;5.10;;;4.03;;
18425;SDS011;9340;48.756;9.226;2023-06-04T14:03:43;4.22;;;3.92;;
18425;SDS011;9340;48.756;9.226;2023-06-04T14:06:10;4.63;;;4.22;;
18425;SDS011;9340;48.756;9.226;2023-06-04T14:08:38;7.28;;;4.35;;
18425;SDS011;9340;48.756;9.226;2023-06-04T14:11:05;5.05;;;4.13;;
18425;SDS011;9340;48.756;9.226;2023-06-04T14:13:32;4.72;;;4.32;;
18425;SDS011;9340;48.756;9.226;2023-06-04T14:15:58;5.20;;;3.97;;
18425;SDS011;9340;48.756;9.226;2023-06-04T14:18:25;5.95;;;3.95;;
18425;SDS011;9340;48.756;9.226;2023-06-04T14:20:51;5.88;;;4.90;;
18425;SDS011;9340;48.756;9.226;2023-06-04T14:23:18;4.88;;;4.38;;
18425;SDS011;9340;48.756;9.226;2023-06-04T14:25:46;5.30;;;4.07;;
18425;SDS011;9340;48.756;9.226;2023-06-04T14:28:13;4.57;;;4.18;;
18425;SDS011;9340;48.756;9.226;2023-06-04T14:30:40;4.28;;;3.95;;
18425;SDS011;9340;48.756;9.226;2023-06-04T14:33:06;5.35;;;4.93;;
18425;SDS011;9340;48.756;9.226;2023-06-04T14:35:33;4.70;;;4.30;;
18425;SDS011;9340;48.756;9.226;2023-06-04T14:38:00;4.50;;;4.10;;
18425;SDS011;9340;48.756;9.226;2023-06-04T14:40:27;4.65;;;4.20;;
18425;SDS011;9340;48.756;9.226;2023-06-04T14:42:55;5.03;;;4.53;;
18425;SDS011;9340;48.756;9.226;2023-06-04T14:45:22;4.70;;;4.30;;
18425;SDS011;9340;48.756;9.226;2023-06-04T14:47:49;4.72;;;4.40;;
18425;SDS011;9340;48.756;9.226;2023-06-04T14:50:16;4.88;;;4.47;;
18425;SDS011;9340;48.756;9.226;2023-06-04T14:52:43;5.13;;;4.43;;
18425;SDS011;9340;48.756;9.226;2023-06-04T14:55:10;5.80;;;5.30;;
18425;SDS011;9340;48.756;9.226;2023-06-04T14:57:37;5.25;;;4.85;;
18425;SDS011;9340;48.756;9.226;2023-06-04T15:00:06;5.32;;;4.93;;
18425;SDS011;9340;48.756;9.226;2023-06-04T15:02:33;4.68;;;4.28;;